Time;durP1;ratioP1;P1;durP2;ratioP2;P2;SDS_P1;SDS_P2;PMS_P1;PMS_P2;Temp;Humidity;BMP_temperature;BMP_pressure;BME280_temperature;BME280_humidity;BME280_pressure;Samples;Min_cycle;Max_cycle;Signal;HPM_P1;HPM_P2
2023/01/28 00:00:21;;;;;;;5.00;2.60;;;;;;;0.36;100.00;102783.16;7399596;19;20395;-59
2023/01/28 00:02:51;;;;;;;5.85;2.67;;;;;;;0.34;100.00;102787.16;7394379;19;20443;-58
2023/01/28 00:05:21;;;;;;;3.57;1.90;;;;;;;0.40;100.00;102770.09;7399815;19;20166;-58
2023/01/28 00:07:54;;;;;;;6.30;2.60;;;;;;;0.47;100.00;102765.72;7394566;19;20474;-60
2023/01/28 00:10:23;;;;;;;6.60;2.57;;;;;;;0.39;100.00;102762.28;7399954;19;20394;-60
2023/01/28 00:12:52;;;;;;;5.10;2.97;;;;;;;0.33;100.00;102764.13;7393397;19;20446;-58
2023/01/28 00:15:24;;;;;;;6.20;2.80;;;;;;;0.34;100.00;102773.53;7399307;19;20400;-59
2023/01/28 00:17:53;;;;;;;8.30;3.40;;;;;;;0.47;100.00;102770.78;7394145;19;20469;-55
2023/01/28 00:20:23;;;;;;;5.57;2.50;;;;;;;0.53;100.00;102774.03;7398996;19;20446;-59
2023/01/28 00:22:55;;;;;;;4.80;2.50;;;;;;;0.56;100.00;102768.41;7395252;19;20443;-58
2023/01/28 00:25:24;;;;;;;4.90;2.60;;;;;;;0.46;100.00;102776.59;7398487;19;20406;-59
2023/01/28 00:27:54;;;;;;;4.77;2.13;;;;;;;0.53;100.00;102786.75;7392739;19;20470;-58
2023/01/28 00:30:23;;;;;;;4.20;2.73;;;;;;;0.50;100.00;102779.66;7399226;19;20725;-58
2023/01/28 00:32:55;;;;;;;4.35;2.70;;;;;;;0.34;100.00;102784.63;7393353;19;20456;-59
2023/01/28 00:35:25;;;;;;;9.87;2.63;;;;;;;0.21;100.00;102778.84;7398028;19;20151;-57
2023/01/28 00:37:57;;;;;;;9.03;3.40;;;;;;;0.12;100.00;102774.50;7391227;19;21122;-59
2023/01/28 00:40:26;;;;;;;6.90;2.80;;;;;;;0.10;100.00;102768.34;7398574;19;20826;-55
2023/01/28 00:42:56;;;;;;;7.20;2.73;;;;;;;0.15;100.00;102765.44;7394242;19;20478;-58
2023/01/28 00:45:25;;;;;;;7.00;3.10;;;;;;;0.24;100.00;102766.50;7398063;19;20411;-57
2023/01/28 00:47:54;;;;;;;9.85;3.20;;;;;;;0.34;100.00;102755.75;7391027;19;20447;-58
2023/01/28 00:50:24;;;;;;;6.77;3.40;;;;;;;0.51;100.00;102752.66;7395458;19;20154;-60
2023/01/28 00:52:53;;;;;;;7.73;3.80;;;;;;;0.42;100.00;102751.56;7390222;19;20462;-57
2023/01/28 00:55:25;;;;;;;15.55;7.13;;;;;;;0.31;100.00;102753.78;7395697;19;20391;-58
2023/01/28 00:57:55;;;;;;;8.20;3.63;;;;;;;0.28;100.00;102745.81;7389114;19;20202;-59
2023/01/28 01:00:26;;;;;;;6.70;3.20;;;;;;;0.21;100.00;102746.72;7394920;19;20419;-53
2023/01/28 01:02:55;;;;;;;7.67;3.53;;;;;;;0.21;100.00;102745.84;7390428;19;20439;-61
2023/01/28 01:05:25;;;;;;;5.27;3.07;;;;;;;0.37;100.00;102745.97;7394942;19;20440;-57
2023/01/28 01:07:54;;;;;;;6.88;3.40;;;;;;;0.39;100.00;102758.13;7390598;19;20445;-61
2023/01/28 01:10:26;;;;;;;6.30;3.33;;;;;;;0.35;100.00;102755.03;7395021;19;20143;-59
2023/01/28 01:12:56;;;;;;;4.87;2.90;;;;;;;0.29;100.00;102745.06;7390106;19;20487;-59
2023/01/28 01:15:26;;;;;;;5.83;2.90;;;;;;;0.21;100.00;102766.16;7395020;19;20935;-59
2023/01/28 01:17:55;;;;;;;6.40;3.03;;;;;;;0.13;100.00;102763.63;7390040;19;20561;-60
2023/01/28 01:20:27;;;;;;;8.40;3.50;;;;;;;0.15;100.00;102757.81;7395151;19;20138;-59
2023/01/28 01:22:58;;;;;;;8.43;3.80;;;;;;;0.03;100.00;102755.66;7391341;19;20781;-59
2023/01/28 01:25:30;;;;;;;7.78;3.70;;;;;;;-0.07;100.00;102747.69;7395922;19;20411;-58
2023/01/28 01:27:59;;;;;;;10.57;3.83;;;;;;;-0.15;100.00;102741.75;7390291;19;20209;-58
2023/01/28 01:30:28;;;;;;;3.70;1.73;;;;;;;-0.15;100.00;102745.16;7395685;19;20142;-60
2023/01/28 01:32:59;;;;;;;4.82;1.70;;;;;;;0.05;100.00;102759.28;7389826;19;20229;-58
2023/01/28 01:35:28;;;;;;;5.57;2.28;;;;;;;0.08;100.00;102752.03;7393922;19;20169;-60
2023/01/28 01:37:58;;;;;;;5.57;3.10;;;;;;;0.12;100.00;102746.56;7389512;19;20209;-59
2023/01/28 01:40:30;;;;;;;9.10;3.30;;;;;;;0.11;100.00;102743.88;7395616;19;20249;-57
2023/01/28 01:43:00;;;;;;;5.45;2.88;;;;;;;0.06;100.00;102745.84;7391096;19;20208;-60
2023/01/28 01:45:30;;;;;;;8.82;3.13;;;;;;;0.06;100.00;102740.78;7394852;19;20681;-56
2023/01/28 01:48:04;;;;;;;6.93;2.53;;;;;;;0.10;100.00;102747.13;7389112;19;20674;-56
2023/01/28 01:50:36;;;;;;;4.18;2.20;;;;;;;0.17;100.00;102748.75;7394859;19;20143;-55
2023/01/28 01:53:09;;;;;;;6.27;2.40;;;;;;;0.31;100.00;102747.81;7389911;19;20198;-59
2023/01/28 01:55:43;;;;;;;4.38;2.40;;;;;;;0.22;100.00;102757.81;7395231;19;20407;-60
2023/01/28 01:58:17;;;;;;;5.80;2.60;;;;;;;0.27;100.00;102756.72;7390379;19;20208;-57
2023/01/28 02:00:48;;;;;;;5.38;2.55;;;;;;;0.17;100.00;102746.19;7395243;19;20397;-60
2023/01/28 02:03:19;;;;;;;6.60;2.63;;;;;;;0.15;100.00;102748.56;7391344;19;20194;-56
2023/01/28 02:05:51;;;;;;;5.10;3.00;;;;;;;0.16;100.00;102744.41;7396565;19;20135;-59
2023/01/28 02:08:24;;;;;;;3.87;2.43;;;;;;;0.15;100.00;102745.13;7390141;19;20426;-59
2023/01/28 02:10:58;;;;;;;7.17;3.03;;;;;;;0.21;100.00;102750.91;7394642;19;20419;-57
2023/01/28 02:13:30;;;;;;;6.95;3.30;;;;;;;0.19;100.00;102738.03;7392713;19;20450;-59
2023/01/28 02:16:01;;;;;;;5.50;2.88;;;;;;;0.18;100.00;102737.84;7394795;19;20149;-58
2023/01/28 02:18:31;;;;;;;6.93;2.97;;;;;;;0.13;100.00;102735.72;7391892;19;20876;-59
2023/01/28 02:21:32;;;;;;;9.83;3.37;;;;;;;0.07;100.00;102737.53;7395036;19;20523;-60
2023/01/28 02:24:14;;;;;;;5.97;3.00;;;;;;;0.05;100.00;102738.97;7386783;19;20917;-60
2023/01/28 02:26:55;;;;;;;7.97;3.17;;;;;;;0.14;100.00;102734.06;7395672;19;20147;-58
2023/01/28 02:29:29;;;;;;;8.97;2.53;;;;;;;0.20;100.00;102731.34;7391543;19;20209;-61
2023/01/28 02:32:05;;;;;;;8.90;2.80;;;;;;;0.12;100.00;102731.31;7394446;19;20426;-60
2023/01/28 02:34:40;;;;;;;6.90;2.33;;;;;;;0.03;100.00;102730.28;7392077;19;20204;-59
2023/01/28 02:37:14;;;;;;;7.85;2.80;;;;;;;-0.05;100.00;102737.00;7394026;19;20382;-56
2023/01/28 02:39:48;;;;;;;6.65;2.45;;;;;;;-0.05;100.00;102736.09;7393198;19;20194;-57
2023/01/28 02:42:20;;;;;;;4.53;2.70;;;;;;;-0.01;100.00;102730.63;7392480;19;20143;-59
2023/01/28 02:44:52;;;;;;;7.50;3.57;;;;;;;-0.04;100.00;102732.84;7395438;19;20391;-59
2023/01/28 02:50:06;;;;;;;4.70;2.73;;;;;;;0.02;100.00;102738.63;7394291;19;20744;-60
2023/01/28 02:55:37;;;;;;;4.28;2.50;;;;;;;-0.01;100.00;102738.25;7394805;19;20943;-60
2023/01/28 02:58:13;;;;;;;6.63;2.40;;;;;;;-0.06;100.00;102744.44;7386637;19;20666;-60
2023/01/28 03:00:50;;;;;;;10.37;2.70;;;;;;;-0.14;100.00;102746.09;7394376;19;20399;-59
2023/01/28 03:03:24;;;;;;;5.38;2.28;;;;;;;-0.07;100.00;102743.53;7390474;19;20455;-57
2023/01/28 03:06:06;;;;;;;4.60;2.50;;;;;;;-0.09;100.00;102737.38;7392919;19;20137;-59
2023/01/28 03:38:41;;;;;;;6.33;2.90;;;;;;;1.11;100.00;102720.34;7387200;19;21002;-58
2023/01/28 03:41:12;;;;;;;4.73;2.80;;;;;;;1.66;100.00;102721.19;7393078;19;20414;-59
2023/01/28 03:43:44;;;;;;;8.10;3.60;;;;;;;1.62;100.00;102719.97;7388087;19;20423;-58
2023/01/28 03:46:13;;;;;;;5.70;2.97;;;;;;;1.36;100.00;102728.19;7392516;19;20399;-58
2023/01/28 03:48:45;;;;;;;8.40;2.73;;;;;;;0.82;100.00;102733.22;7389481;19;20522;-56
2023/01/28 03:51:16;;;;;;;5.30;3.30;;;;;;;0.22;100.00;102737.50;7392858;19;20395;-58
2023/01/28 03:53:46;;;;;;;4.50;2.67;;;;;;;0.24;100.00;102747.09;7389536;19;21101;-59
2023/01/28 03:56:17;;;;;;;7.13;2.80;;;;;;;0.73;100.00;102734.75;7391860;19;20704;-60
2023/01/28 03:58:55;;;;;;;7.30;2.87;;;;;;;0.39;100.00;102736.88;7390999;19;20439;-59
2023/01/28 04:01:25;;;;;;;10.47;2.40;;;;;;;0.47;100.00;102740.31;7399206;19;20918;-60
2023/01/28 04:03:57;;;;;;;5.20;2.90;;;;;;;0.43;100.00;102735.59;7396083;19;20501;-59
2023/01/28 04:06:27;;;;;;;6.80;2.80;;;;;;;0.71;100.00;102732.03;7399632;19;20390;-60
2023/01/28 04:08:58;;;;;;;7.03;2.80;;;;;;;0.74;100.00;102731.47;7394169;19;20443;-60
2023/01/28 04:11:28;;;;;;;5.73;2.90;;;;;;;0.71;100.00;102723.50;7400403;19;21254;-61
2023/01/28 04:13:57;;;;;;;5.47;2.50;;;;;;;0.67;100.00;102725.69;7394485;19;20434;-61
2023/01/28 04:16:27;;;;;;;6.00;2.93;;;;;;;0.63;100.00;102718.47;7399316;19;20371;-57
2023/01/28 04:18:59;;;;;;;11.03;3.73;;;;;;;0.41;100.00;102720.16;7394294;19;20448;-59
2023/01/28 04:21:28;;;;;;;6.57;3.30;;;;;;;0.52;100.00;102723.97;7399968;19;20426;-59
2023/01/28 04:23:58;;;;;;;6.90;3.43;;;;;;;0.37;100.00;102729.06;7393342;19;20444;-59
2023/01/28 04:26:28;;;;;;;5.10;3.10;;;;;;;0.18;100.00;102726.06;7398791;19;20431;-61
2023/01/28 04:28:57;;;;;;;7.03;2.77;;;;;;;0.37;100.00;102718.03;7393770;19;20458;-57
2023/01/28 04:31:26;;;;;;;11.67;3.30;;;;;;;0.52;100.00;102718.88;7399557;19;20410;-59
2023/01/28 04:33:59;;;;;;;6.17;2.93;;;;;;;0.15;100.00;102719.75;7394498;19;20461;-59
2023/01/28 04:36:28;;;;;;;6.70;3.20;;;;;;;-0.05;100.00;102719.22;7398316;19;20408;-60
2023/01/28 04:38:58;;;;;;;5.05;2.78;;;;;;;-0.37;100.00;102725.63;7393193;19;20202;-58
2023/01/28 04:41:27;;;;;;;9.30;3.13;;;;;;;-0.15;100.00;102724.88;7398827;19;20131;-58
2023/01/28 04:43:57;;;;;;;9.15;4.10;;;;;;;-0.12;100.00;102723.44;7395008;19;20190;-56
2023/01/28 04:46:26;;;;;;;5.05;2.90;;;;;;;-0.21;100.00;102729.22;7397739;19;20150;-59
2023/01/28 04:48:58;;;;;;;9.38;3.53;;;;;;;-0.30;100.00;102723.97;7394225;19;20194;-58
2023/01/28 04:51:28;;;;;;;9.38;3.28;;;;;;;-0.22;100.00;102717.28;7398716;19;20155;-61
2023/01/28 04:53:57;;;;;;;12.53;3.77;;;;;;;-0.02;100.00;102722.13;7393892;19;20697;-60
2023/01/28 04:56:26;;;;;;;8.90;3.22;;;;;;;-0.16;100.00;102725.59;7398008;19;20400;-59
2023/01/28 04:58:56;;;;;;;8.90;3.63;;;;;;;-0.16;100.00;102717.97;7392999;19;20654;-57
2023/01/28 05:01:26;;;;;;;9.55;3.75;;;;;;;-0.49;100.00;102720.91;7398314;19;20139;-57
2023/01/28 05:03:55;;;;;;;6.25;3.20;;;;;;;-1.22;100.00;102741.06;7393860;19;20190;-59
2023/01/28 05:06:27;;;;;;;4.65;3.22;;;;;;;-1.23;100.00;102729.13;7397229;19;20151;-59
2023/01/28 05:08:57;;;;;;;7.03;3.30;;;;;;;-1.37;100.00;102724.03;7392086;19;20194;-56
2023/01/28 05:11:26;;;;;;;7.20;3.40;;;;;;;-1.26;100.00;102716.13;7395586;19;20937;-59
2023/01/28 05:13:56;;;;;;;7.70;3.42;;;;;;;-1.05;100.00;102703.28;7393066;19;20198;-59
2023/01/28 05:16:26;;;;;;;9.20;3.72;;;;;;;-0.92;100.00;102690.47;7397064;19;20143;-57
2023/01/28 05:18:55;;;;;;;7.35;3.70;;;;;;;-0.88;100.00;102682.53;7392922;19;20201;-60
2023/01/28 05:21:28;;;;;;;5.25;3.38;;;;;;;-0.88;100.00;102685.06;7397977;19;20146;-58
2023/01/28 05:23:57;;;;;;;7.57;3.80;;;;;;;-1.04;100.00;102688.28;7393774;19;20217;-60
2023/01/28 05:26:27;;;;;;;6.57;3.50;;;;;;;-1.18;100.00;102675.59;7396667;19;20143;-59
2023/01/28 05:28:56;;;;;;;6.95;3.47;;;;;;;-1.42;100.00;102679.50;7392216;19;20198;-59
2023/01/28 05:31:26;;;;;;;12.23;4.13;;;;;;;-1.55;100.00;102683.09;7397358;19;20509;-61
2023/01/28 05:33:55;;;;;;;7.38;3.60;;;;;;;-1.50;100.00;102684.56;7392830;19;20190;-57
2023/01/28 05:36:27;;;;;;;9.13;3.70;;;;;;;-1.32;100.00;102662.19;7396294;19;20131;-55
2023/01/28 05:38:57;;;;;;;5.07;3.40;;;;;;;-0.99;100.00;102655.88;7392099;19;20205;-54
2023/01/28 05:41:26;;;;;;;7.10;3.70;;;;;;;-1.07;100.00;102664.19;7396960;19;20147;-58
2023/01/28 05:43:56;;;;;;;7.93;4.30;;;;;;;-0.99;100.00;102664.41;7393100;19;20214;-56
2023/01/28 05:46:26;;;;;;;6.43;3.65;;;;;;;-1.23;100.00;102668.34;7396015;19;20151;-58
2023/01/28 05:48:55;;;;;;;7.30;3.95;;;;;;;-1.19;100.00;102664.53;7391770;19;20198;-57
2023/01/28 05:51:27;;;;;;;8.07;4.82;;;;;;;-1.14;100.00;102648.25;7396651;19;20178;-59
2023/01/28 05:53:57;;;;;;;7.70;4.25;;;;;;;-1.32;100.00;102654.59;7391777;19;20194;-55
2023/01/28 05:56:26;;;;;;;9.73;4.88;;;;;;;-1.44;100.00;102665.75;7395730;19;20138;-58
2023/01/28 05:58:56;;;;;;;6.68;4.20;;;;;;;-1.23;100.00;102662.38;7389750;19;20198;-61
2023/01/28 06:01:25;;;;;;;7.60;4.35;;;;;;;-1.42;100.00;102660.16;7395811;19;20135;-59
2023/01/28 06:03:55;;;;;;;9.10;4.88;;;;;;;-1.51;100.00;102653.97;7391939;19;20203;-59
2023/01/28 06:06:24;;;;;;;10.38;4.60;;;;;;;-1.74;100.00;102653.72;7395611;19;20150;-58
2023/01/28 06:08:56;;;;;;;8.82;3.90;;;;;;;-1.71;100.00;102651.53;7390501;19;20194;-58
2023/01/28 06:11:26;;;;;;;7.25;4.55;;;;;;;-1.79;100.00;102649.00;7390795;19;20143;-56
2023/01/28 06:13:55;;;;;;;9.55;4.38;;;;;;;-2.08;100.00;102645.44;7391625;19;20753;-58
2023/01/28 06:16:25;;;;;;;7.75;3.90;;;;;;;-2.12;100.00;102648.28;7395044;19;20163;-59
2023/01/28 06:18:54;;;;;;;12.50;4.65;;;;;;;-2.21;100.00;102643.03;7390932;19;20202;-57
2023/01/28 06:21:24;;;;;;;7.75;4.50;;;;;;;-2.24;100.00;102635.03;7395380;19;20520;-57
2023/01/28 06:23:56;;;;;;;7.25;4.55;;;;;;;-2.15;100.00;102615.97;7391474;19;20189;-58
2023/01/28 06:26:25;;;;;;;9.43;5.80;;;;;;;-2.18;100.00;102610.50;7394879;19;20158;-56
2023/01/28 06:28:55;;;;;;;9.30;4.80;;;;;;;-2.23;100.00;102599.84;7390722;19;20202;-59
2023/01/28 06:31:24;;;;;;;12.90;5.30;;;;;;;-2.18;100.00;102600.38;7395837;19;20666;-59
2023/01/28 06:33:54;;;;;;;10.90;5.60;;;;;;;-2.23;100.00;102602.34;7391612;19;20194;-59
2023/01/28 06:36:23;;;;;;;7.85;4.55;;;;;;;-2.39;100.00;102607.16;7394117;19;20135;-57
2023/01/28 06:38:56;;;;;;;10.18;5.80;;;;;;;-2.37;100.00;102597.25;7390387;19;20666;-58
2023/01/28 06:41:25;;;;;;;10.90;5.60;;;;;;;-2.47;100.00;102580.00;7394356;19;20138;-57
2023/01/28 06:43:55;;;;;;;10.07;6.10;;;;;;;-2.50;100.00;102582.16;7391848;19;20186;-54
2023/01/28 06:46:24;;;;;;;12.05;6.25;;;;;;;-2.49;100.00;102599.13;7394768;19;20130;-57
2023/01/28 06:48:54;;;;;;;11.68;6.22;;;;;;;-1.91;100.00;102596.88;7389596;19;20194;-58
2023/01/28 06:51:23;;;;;;;12.02;6.88;;;;;;;-1.53;100.00;102597.19;7394913;19;20476;-57
2023/01/28 06:53:55;;;;;;;10.43;6.50;;;;;;;-1.54;100.00;102606.41;7390633;19;20204;-60
2023/01/28 06:56:25;;;;;;;11.10;6.32;;;;;;;-1.30;100.00;102610.06;7392379;19;20170;-59
2023/01/28 06:58:54;;;;;;;15.18;7.55;;;;;;;-1.46;100.00;102619.06;7389295;19;20226;-57
2023/01/28 07:01:24;;;;;;;15.80;7.95;;;;;;;-1.41;100.00;102620.53;7394210;19;20131;-61
2023/01/28 07:03:53;;;;;;;9.60;6.25;;;;;;;-1.19;100.00;102633.25;7390540;19;20182;-60
2023/01/28 07:06:23;;;;;;;11.07;7.00;;;;;;;-1.42;100.00;102664.31;7393494;19;20151;-56
2023/01/28 07:08:52;;;;;;;13.00;7.07;;;;;;;-1.32;100.00;102659.66;7389688;19;20208;-55
2023/01/28 07:11:24;;;;;;;10.93;7.43;;;;;;;-1.57;100.00;102666.81;7393744;19;20622;-59
2023/01/28 07:13:54;;;;;;;13.40;6.72;;;;;;;-1.48;100.00;102663.56;7390724;19;20679;-60
2023/01/28 07:16:23;;;;;;;14.18;7.72;;;;;;;-1.40;100.00;102670.47;7392249;19;20521;-56
2023/01/28 07:18:53;;;;;;;14.07;7.63;;;;;;;-1.45;100.00;102679.16;7389149;19;20209;-59
2023/01/28 07:21:22;;;;;;;15.57;7.57;;;;;;;-1.47;100.00;102678.03;7394085;19;20135;-60
2023/01/28 07:23:52;;;;;;;12.35;7.90;;;;;;;-1.70;100.00;102676.16;7390489;19;20193;-56
2023/01/28 07:26:22;;;;;;;16.15;8.20;;;;;;;-1.29;100.00;102677.72;7393311;19;20135;-59
2023/01/28 07:28:54;;;;;;;13.48;7.78;;;;;;;-1.23;100.00;102677.59;7388336;19;20562;-57
2023/01/28 07:31:24;;;;;;;11.80;7.38;;;;;;;-1.36;100.00;102672.66;7393680;19;20166;-59
2023/01/28 07:33:53;;;;;;;16.10;8.73;;;;;;;-1.24;100.00;102665.59;7392081;19;20213;-58
2023/01/28 07:36:23;;;;;;;12.00;8.15;;;;;;;-1.43;100.00;102676.06;7397679;19;20158;-57
2023/01/28 07:38:52;;;;;;;14.75;8.05;;;;;;;-1.36;100.00;102680.25;7394759;19;20705;-59
2023/01/28 07:41:22;;;;;;;15.82;9.63;;;;;;;-1.58;100.00;102682.72;7400787;19;20223;-59
2023/01/28 07:43:54;;;;;;;16.60;8.82;;;;;;;-1.96;100.00;102686.50;7396770;19;20190;-58
2023/01/28 07:46:24;;;;;;;14.65;8.10;;;;;;;-2.12;100.00;102689.69;7400852;19;20135;-56
2023/01/28 07:48:53;;;;;;;15.80;8.50;;;;;;;-2.03;100.00;102684.84;7394264;19;20221;-59
2023/01/28 07:51:23;;;;;;;16.40;8.85;;;;;;;-2.09;100.00;102664.78;7400298;19;20139;-59
2023/01/28 07:53:52;;;;;;;19.05;8.60;;;;;;;-2.22;100.00;102674.06;7398493;19;20594;-58
2023/01/28 07:56:21;;;;;;;14.45;8.13;;;;;;;-1.90;100.00;102673.00;7397628;19;20614;-59
2023/01/28 07:58:54;;;;;;;13.57;8.18;;;;;;;-1.82;100.00;102671.41;7395018;19;20612;-58
2023/01/28 08:01:23;;;;;;;16.48;8.48;;;;;;;-2.08;100.00;102670.72;7400124;19;20138;-58
2023/01/28 08:03:53;;;;;;;15.93;8.45;;;;;;;-2.18;100.00;102672.13;7395223;19;20566;-57
2023/01/28 08:06:22;;;;;;;15.38;8.45;;;;;;;-2.19;100.00;102671.94;7396901;19;20179;-56
2023/01/28 08:08:52;;;;;;;15.35;8.85;;;;;;;-2.08;100.00;102676.72;7391444;19;20198;-59
2023/01/28 08:11:22;;;;;;;16.45;9.20;;;;;;;-2.19;100.00;102671.94;7400142;19;20143;-56
2023/01/28 08:13:54;;;;;;;20.23;10.55;;;;;;;-1.96;100.00;102671.31;7395563;19;21194;-59
2023/01/28 08:16:23;;;;;;;18.83;9.65;;;;;;;-2.00;100.00;102670.03;7397017;19;20163;-58
2023/01/28 08:18:54;;;;;;;18.23;9.40;;;;;;;-1.99;100.00;102660.84;7393547;19;20677;-58
2023/01/28 08:21:23;;;;;;;26.15;12.43;;;;;;;-1.93;100.00;102662.50;7399239;19;20153;-59
2023/01/28 08:23:53;;;;;;;26.60;11.55;;;;;;;-1.78;100.00;102668.50;7395781;19;20206;-56
2023/01/28 08:26:23;;;;;;;30.75;11.75;;;;;;;-1.80;100.00;102667.44;7398884;19;20214;-57
2023/01/28 08:28:55;;;;;;;18.48;9.65;;;;;;;-1.86;100.00;102659.09;7393726;19;20198;-60
2023/01/28 08:31:24;;;;;;;28.73;12.13;;;;;;;-1.90;100.00;102656.88;7399251;19;20139;-55
2023/01/28 08:33:54;;;;;;;15.60;8.90;;;;;;;-2.18;100.00;102658.56;7396670;19;20581;-58
2023/01/28 08:36:23;;;;;;;18.65;8.82;;;;;;;-2.22;100.00;102672.47;7396290;19;20558;-55
2023/01/28 08:38:54;;;;;;;47.55;15.85;;;;;;;-1.94;100.00;102669.91;7393661;19;20671;-54
2023/01/28 08:41:25;;;;;;;17.08;9.68;;;;;;;-1.92;100.00;102673.53;7398760;19;20135;-50
2023/01/28 08:43:57;;;;;;;42.65;18.42;;;;;;;-1.17;100.00;102687.53;7395500;19;20619;-59
2023/01/28 08:46:26;;;;;;;25.00;12.77;;;;;;;-1.17;100.00;102692.59;7397778;19;20143;-57
2023/01/28 08:48:56;;;;;;;28.55;12.77;;;;;;;-0.79;100.00;102678.53;7393321;19;20935;-56
2023/01/28 08:51:25;;;;;;;18.88;9.32;;;;;;;-1.10;100.00;102711.28;7398468;19;20130;-53
2023/01/28 08:53:54;;;;;;;18.63;9.93;;;;;;;-1.10;100.00;102715.41;7394333;19;20213;-56
2023/01/28 08:56:24;;;;;;;42.33;14.70;;;;;;;-1.27;100.00;102726.06;7396411;19;20222;-53
2023/01/28 08:58:57;;;;;;;21.60;10.43;;;;;;;-1.36;100.00;102726.75;7392913;19;20210;-52
2023/01/28 09:01:28;;;;;;;19.33;9.55;;;;;;;-1.21;100.00;102729.34;7397561;19;20506;-58
2023/01/28 09:03:57;;;;;;;17.95;8.50;;;;;;;-1.40;100.00;102739.75;7394191;19;20201;-52
2023/01/28 09:06:27;;;;;;;20.40;9.50;;;;;;;-1.23;100.00;102739.28;7397234;19;20157;-54
2023/01/28 09:08:58;;;;;;;16.20;9.40;;;;;;;-1.19;100.00;102744.72;7392480;19;20217;-54
2023/01/28 09:11:28;;;;;;;16.27;9.75;;;;;;;-1.13;100.00;102753.06;7397314;19;20134;-56
2023/01/28 09:14:01;;;;;;;16.23;9.02;;;;;;;-1.01;100.00;102762.16;7394279;19;20194;-57
2023/01/28 09:16:31;;;;;;;15.98;8.82;;;;;;;-0.87;100.00;102773.03;7395589;19;20611;-60
2023/01/28 09:19:00;;;;;;;14.07;8.23;;;;;;;-0.91;100.00;102776.84;7392821;19;20558;-57
2023/01/28 09:21:30;;;;;;;13.35;8.40;;;;;;;-1.02;100.00;102779.69;7397294;19;20131;-53
2023/01/28 09:23:59;;;;;;;13.80;8.07;;;;;;;-1.03;100.00;102788.91;7392919;19;20677;-57
2023/01/28 09:26:29;;;;;;;14.65;8.43;;;;;;;-0.89;100.00;102792.22;7396473;19;20138;-55
2023/01/28 09:29:01;;;;;;;16.67;9.55;;;;;;;-1.02;100.00;102798.31;7392348;19;20198;-59
2023/01/28 09:31:30;;;;;;;17.02;9.07;;;;;;;-1.14;100.00;102815.50;7397074;19;20937;-54
2023/01/28 09:34:00;;;;;;;15.02;8.40;;;;;;;-1.05;100.00;102822.41;7393028;19;20607;-58
2023/01/28 09:36:29;;;;;;;18.08;8.05;;;;;;;-0.90;100.00;102816.66;7395030;19;20143;-59
2023/01/28 09:38:59;;;;;;;19.52;8.90;;;;;;;-1.00;100.00;102819.72;7391496;19;20225;-57
2023/01/28 09:41:30;;;;;;;16.15;8.30;;;;;;;-0.87;100.00;102818.66;7396769;19;20135;-59
2023/01/28 09:44:11;;;;;;;16.10;8.75;;;;;;;-0.82;100.00;102815.06;7393220;19;20226;-59
2023/01/28 09:46:44;;;;;;;15.57;6.70;;;;;;;-0.73;100.00;102808.56;7396011;19;20131;-59
2023/01/28 09:49:21;;;;;;;16.42;8.55;;;;;;;-0.66;100.00;102815.28;7391654;19;20205;-59
2023/01/28 09:51:53;;;;;;;15.35;8.30;;;;;;;-0.44;100.00;102808.63;7394739;19;20158;-59
2023/01/28 09:54:39;;;;;;;15.18;8.77;;;;;;;-0.56;100.00;102810.56;7393044;19;20197;-56
2023/01/28 09:57:14;;;;;;;17.00;10.10;;;;;;;-0.62;100.00;102804.78;7392348;19;20163;-57
2023/01/28 09:59:46;;;;;;;12.23;7.50;;;;;;;-0.70;100.00;102811.47;7393931;19;20207;-59
2023/01/28 10:02:39;;;;;;;11.93;5.90;;;;;;;-0.84;100.00;102798.75;7395580;19;20476;-59
2023/01/28 10:05:18;;;;;;;15.80;8.35;;;;;;;-0.68;100.00;102802.41;7392837;19;20178;-58
2023/01/28 10:07:56;;;;;;;12.70;7.55;;;;;;;-0.35;100.00;102797.75;7392620;19;20685;-57
2023/01/28 10:10:29;;;;;;;14.50;7.45;;;;;;;-0.07;100.00;102801.00;7395818;19;20141;-61
2023/01/28 10:13:07;;;;;;;13.38;7.78;;;;;;;-0.34;100.00;102805.53;7391968;19;20201;-57
2023/01/28 10:15:55;;;;;;;10.77;5.90;;;;;;;-0.72;100.00;102828.13;7395944;19;20488;-59
2023/01/28 10:18:32;;;;;;;18.05;7.50;;;;;;;-0.64;100.00;102825.59;7390481;19;20201;-59
2023/01/28 10:21:07;;;;;;;9.48;5.47;;;;;;;-0.67;100.00;102823.59;7393422;19;20158;-56
2023/01/28 10:23:43;;;;;;;16.73;6.72;;;;;;;-0.59;100.00;102814.38;7389704;19;20189;-59
2023/01/28 10:26:19;;;;;;;16.05;8.15;;;;;;;-0.47;100.00;102810.78;7393422;19;20513;-57
2023/01/28 10:28:55;;;;;;;15.27;8.82;;;;;;;-0.42;100.00;102809.69;7391737;19;20186;-58
2023/01/28 10:31:32;;;;;;;19.30;8.32;;;;;;;-0.32;100.00;102805.69;7394966;19;20170;-59
2023/01/28 10:34:03;;;;;;;13.15;7.25;;;;;;;-0.34;100.00;102797.00;7391059;19;20192;-58
2023/01/28 10:36:32;;;;;;;15.55;8.75;;;;;;;-0.31;100.00;102792.31;7393367;19;20134;-57
2023/01/28 10:39:02;;;;;;;19.65;8.68;;;;;;;-0.37;100.00;102789.06;7390324;19;20225;-58
2023/01/28 10:41:31;;;;;;;16.15;8.18;;;;;;;-0.37;100.00;102778.91;7394807;19;20153;-57
2023/01/28 10:44:01;;;;;;;13.30;6.85;;;;;;;-0.32;100.00;102771.09;7391069;19;20190;-56
2023/01/28 10:46:35;;;;;;;15.77;9.15;;;;;;;-0.27;100.00;102784.31;7393790;19;20146;-55
2023/01/28 10:49:08;;;;;;;15.05;8.57;;;;;;;-0.29;100.00;102771.44;7389220;19;20198;-59
2023/01/28 10:51:39;;;;;;;17.05;9.20;;;;;;;-0.25;100.00;102767.69;7394179;19;20159;-59
2023/01/28 10:54:21;;;;;;;23.77;9.85;;;;;;;-0.24;100.00;102759.31;7390607;19;20186;-58
2023/01/28 10:56:52;;;;;;;15.07;9.40;;;;;;;-0.29;100.00;102756.22;7394610;19;20151;-55
2023/01/28 10:59:24;;;;;;;15.05;7.70;;;;;;;-0.35;100.00;102759.69;7390431;19;20198;-55
2023/01/28 11:01:58;;;;;;;18.75;8.82;;;;;;;-0.25;100.00;102744.84;7393017;19;20162;-54
2023/01/28 11:04:29;;;;;;;25.20;9.10;;;;;;;-0.35;100.00;102752.09;7390099;19;20182;-59
2023/01/28 11:07:01;;;;;;;14.98;7.35;;;;;;;-0.34;100.00;102747.19;7392579;19;20138;-54
2023/01/28 11:09:32;;;;;;;17.02;7.90;;;;;;;-0.22;100.00;102742.66;7392336;19;20198;-59
2023/01/28 11:12:13;;;;;;;14.10;7.85;;;;;;;-0.04;100.00;102736.25;7400794;19;20134;-59
2023/01/28 11:14:51;;;;;;;18.30;10.10;;;;;;;0.05;100.00;102720.31;7401218;19;20186;-54
2023/01/28 11:17:25;;;;;;;14.70;7.70;;;;;;;0.15;100.00;102724.81;7397150;19;20138;-59
2023/01/28 11:19:55;;;;;;;15.60;8.85;;;;;;;0.32;100.00;102714.06;7396749;19;20169;-55
2023/01/28 11:22:30;;;;;;;21.00;9.68;;;;;;;0.40;100.00;102715.81;7397872;19;20156;-59
2023/01/28 11:25:00;;;;;;;18.55;8.50;;;;;;;0.40;100.00;102706.59;7400106;19;20137;-54
2023/01/28 11:27:32;;;;;;;18.80;9.20;;;;;;;0.44;100.00;102706.91;7396976;19;20146;-58
2023/01/28 11:30:04;;;;;;;12.30;6.72;;;;;;;0.13;100.00;102717.94;7400282;19;20135;-56
2023/01/28 11:32:36;;;;;;;15.15;8.65;;;;;;;0.34;100.00;102718.59;7398009;19;20139;-56
2023/01/28 11:35:07;;;;;;;14.18;8.13;;;;;;;0.42;100.00;102705.84;7399502;19;20130;-57
2023/01/28 11:37:37;;;;;;;11.80;7.78;;;;;;;0.16;100.00;102721.53;7396830;19;20883;-57
2023/01/28 11:40:19;;;;;;;14.85;8.38;;;;;;;0.25;100.00;102707.34;7399832;19;20171;-59
2023/01/28 11:42:52;;;;;;;16.90;8.35;;;;;;;0.19;100.00;102686.34;7398301;19;20193;-58
2023/01/28 11:45:26;;;;;;;13.90;8.63;;;;;;;0.12;100.00;102702.53;7400524;19;20135;-59
2023/01/28 11:48:08;;;;;;;12.85;7.85;;;;;;;0.33;100.00;102701.53;7395479;19;20197;-55
2023/01/28 11:50:47;;;;;;;18.48;8.95;;;;;;;0.21;100.00;102707.75;7395583;19;20142;-58
2023/01/28 11:53:28;;;;;;;17.48;9.43;;;;;;;0.17;100.00;102711.56;7397125;19;20197;-57
2023/01/28 11:56:11;;;;;;;19.33;10.35;;;;;;;0.16;100.00;102716.47;7398217;19;20166;-57
2023/01/28 11:58:47;;;;;;;15.75;9.30;;;;;;;0.20;100.00;102708.47;7395802;19;20198;-56
2023/01/28 12:01:23;;;;;;;17.65;7.50;;;;;;;0.06;100.00;102692.53;7399112;19;20162;-59
2023/01/28 12:04:12;;;;;;;15.77;8.70;;;;;;;0.03;100.00;102709.97;7395719;19;20210;-55
2023/01/28 12:06:55;;;;;;;23.35;9.50;;;;;;;0.33;100.00;102701.53;7399062;19;20135;-56
2023/01/28 12:09:27;;;;;;;13.95;7.38;;;;;;;0.24;100.00;102701.38;7394493;19;20922;-56
2023/01/28 12:12:13;;;;;;;11.82;5.90;;;;;;;0.11;100.00;102705.78;7398763;19;20139;-57